sensor_id;sensor_type;location;lat;lon;timestamp;P1;durP1;ratioP1;P2;durP2;ratioP2
58665;SDS011;44436;52.872;6.520;2022-07-29T00:01:47;2.85;;;1.15;;
58665;SDS011;44436;52.872;6.520;2022-07-29T00:04:12;4.18;;;0.90;;
58665;SDS011;44436;52.872;6.520;2022-07-29T00:06:38;2.85;;;1.00;;
58665;SDS011;44436;52.872;6.520;2022-07-29T00:09:04;2.33;;;1.13;;
58665;SDS011;44436;52.872;6.520;2022-07-29T00:11:29;3.53;;;1.20;;
58665;SDS011;44436;52.872;6.520;2022-07-29T00:13:55;4.20;;;1.10;;
58665;SDS011;44436;52.872;6.520;2022-07-29T00:16:21;2.95;;;0.90;;
58665;SDS011;44436;52.872;6.520;2022-07-29T00:18:46;2.10;;;1.02;;
58665;SDS011;44436;52.872;6.520;2022-07-29T00:21:12;3.25;;;1.10;;
58665;SDS011;44436;52.872;6.520;2022-07-29T00:23:38;3.78;;;1.02;;
58665;SDS011;44436;52.872;6.520;2022-07-29T00:26:03;2.05;;;1.30;;
58665;SDS011;44436;52.872;6.520;2022-07-29T00:28:29;3.53;;;1.30;;
58665;SDS011;44436;52.872;6.520;2022-07-29T00:30:55;3.28;;;1.00;;
58665;SDS011;44436;52.872;6.520;2022-07-29T00:33:20;4.88;;;1.13;;
58665;SDS011;44436;52.872;6.520;2022-07-29T00:35:47;3.30;;;0.95;;
58665;SDS011;44436;52.872;6.520;2022-07-29T00:38:16;3.83;;;1.50;;
58665;SDS011;44436;52.872;6.520;2022-07-29T00:40:43;4.43;;;1.40;;
58665;SDS011;44436;52.872;6.520;2022-07-29T00:43:10;3.55;;;1.50;;
58665;SDS011;44436;52.872;6.520;2022-07-29T00:45:37;4.50;;;1.38;;
58665;SDS011;44436;52.872;6.520;2022-07-29T00:48:03;2.22;;;1.00;;
58665;SDS011;44436;52.872;6.520;2022-07-29T00:50:30;2.40;;;1.10;;
58665;SDS011;44436;52.872;6.520;2022-07-29T00:52:56;4.03;;;1.30;;
58665;SDS011;44436;52.872;6.520;2022-07-29T00:55:21;2.03;;;1.23;;
58665;SDS011;44436;52.872;6.520;2022-07-29T00:57:47;3.25;;;1.27;;
58665;SDS011;44436;52.872;6.520;2022-07-29T01:00:15;5.38;;;1.38;;
58665;SDS011;44436;52.872;6.520;2022-07-29T01:02:46;4.88;;;1.30;;
58665;SDS011;44436;52.872;6.520;2022-07-29T01:05:13;3.42;;;1.30;;
58665;SDS011;44436;52.872;6.520;2022-07-29T01:07:41;3.83;;;1.20;;
58665;SDS011;44436;52.872;6.520;2022-07-29T01:10:08;4.82;;;1.40;;
58665;SDS011;44436;52.872;6.520;2022-07-29T01:12:35;2.17;;;1.20;;
58665;SDS011;44436;52.872;6.520;2022-07-29T01:15:03;3.67;;;1.08;;
58665;SDS011;44436;52.872;6.520;2022-07-29T01:20:31;3.65;;;1.20;;
58665;SDS011;44436;52.872;6.520;2022-07-29T01:31:05;5.05;;;1.50;;
58665;SDS011;44436;52.872;6.520;2022-07-29T01:33:33;4.47;;;1.50;;
58665;SDS011;44436;52.872;6.520;2022-07-29T01:36:22;2.73;;;1.33;;
58665;SDS011;44436;52.872;6.520;2022-07-29T01:42:00;3.08;;;1.33;;
58665;SDS011;44436;52.872;6.520;2022-07-29T01:47:37;4.47;;;1.38;;
58665;SDS011;44436;52.872;6.520;2022-07-29T01:50:11;2.85;;;1.50;;
58665;SDS011;44436;52.872;6.520;2022-07-29T01:55:17;3.60;;;1.40;;
58665;SDS011;44436;52.872;6.520;2022-07-29T01:57:47;3.40;;;1.70;;
58665;SDS011;44436;52.872;6.520;2022-07-29T02:00:14;3.38;;;1.55;;
58665;SDS011;44436;52.872;6.520;2022-07-29T02:02:41;5.85;;;1.30;;
58665;SDS011;44436;52.872;6.520;2022-07-29T02:05:09;6.82;;;1.17;;
58665;SDS011;44436;52.872;6.520;2022-07-29T02:07:46;2.70;;;1.20;;
58665;SDS011;44436;52.872;6.520;2022-07-29T02:10:13;4.72;;;1.20;;
58665;SDS011;44436;52.872;6.520;2022-07-29T02:12:40;4.75;;;1.20;;
58665;SDS011;44436;52.872;6.520;2022-07-29T02:15:08;2.85;;;1.20;;
58665;SDS011;44436;52.872;6.520;2022-07-29T02:17:43;3.15;;;1.45;;
58665;SDS011;44436;52.872;6.520;2022-07-29T02:20:16;3.40;;;1.17;;
58665;SDS011;44436;52.872;6.520;2022-07-29T02:22:42;4.03;;;1.30;;
58665;SDS011;44436;52.872;6.520;2022-07-29T02:25:09;4.10;;;1.10;;
58665;SDS011;44436;52.872;6.520;2022-07-29T02:27:37;2.33;;;1.00;;
58665;SDS011;44436;52.872;6.520;2022-07-29T02:30:05;3.13;;;1.23;;
58665;SDS011;44436;52.872;6.520;2022-07-29T02:32:32;3.30;;;1.23;;
58665;SDS011;44436;52.872;6.520;2022-07-29T02:35:02;2.45;;;1.20;;
58665;SDS011;44436;52.872;6.520;2022-07-29T02:37:28;5.63;;;1.13;;
58665;SDS011;44436;52.872;6.520;2022-07-29T02:39:55;4.10;;;1.42;;
58665;SDS011;44436;52.872;6.520;2022-07-29T02:42:23;5.60;;;1.27;;
58665;SDS011;44436;52.872;6.520;2022-07-29T02:44:51;3.00;;;1.20;;
58665;SDS011;44436;52.872;6.520;2022-07-29T02:47:22;1.95;;;1.05;;
58665;SDS011;44436;52.872;6.520;2022-07-29T02:50:05;4.72;;;1.10;;
58665;SDS011;44436;52.872;6.520;2022-07-29T02:52:39;3.30;;;1.33;;
58665;SDS011;44436;52.872;6.520;2022-07-29T02:58:14;4.68;;;1.25;;
58665;SDS011;44436;52.872;6.520;2022-07-29T03:00:51;3.30;;;1.40;;
58665;SDS011;44436;52.872;6.520;2022-07-29T03:03:18;3.45;;;1.20;;
58665;SDS011;44436;52.872;6.520;2022-07-29T03:05:46;4.30;;;1.15;;
58665;SDS011;44436;52.872;6.520;2022-07-29T03:08:12;4.50;;;1.10;;
58665;SDS011;44436;52.872;6.520;2022-07-29T03:10:40;11.80;;;1.65;;
58665;SDS011;44436;52.872;6.520;2022-07-29T03:13:10;5.13;;;1.20;;
58665;SDS011;44436;52.872;6.520;2022-07-29T03:15:38;4.47;;;1.40;;
58665;SDS011;44436;52.872;6.520;2022-07-29T03:18:04;6.22;;;1.10;;
58665;SDS011;44436;52.872;6.520;2022-07-29T03:20:31;7.30;;;1.75;;
58665;SDS011;44436;52.872;6.520;2022-07-29T03:22:57;5.55;;;1.58;;
58665;SDS011;44436;52.872;6.520;2022-07-29T03:25:23;4.75;;;1.30;;
58665;SDS011;44436;52.872;6.520;2022-07-29T03:27:49;4.25;;;1.27;;
58665;SDS011;44436;52.872;6.520;2022-07-29T03:30:14;3.53;;;1.25;;
58665;SDS011;44436;52.872;6.520;2022-07-29T03:32:41;3.05;;;1.27;;
58665;SDS011;44436;52.872;6.520;2022-07-29T03:35:07;5.00;;;1.40;;
58665;SDS011;44436;52.872;6.520;2022-07-29T03:37:33;4.00;;;1.33;;
58665;SDS011;44436;52.872;6.520;2022-07-29T03:40:01;5.00;;;1.95;;
58665;SDS011;44436;52.872;6.520;2022-07-29T03:42:32;3.00;;;1.30;;
58665;SDS011;44436;52.872;6.520;2022-07-29T03:45:01;3.70;;;1.40;;
58665;SDS011;44436;52.872;6.520;2022-07-29T03:47:31;5.03;;;1.40;;
58665;SDS011;44436;52.872;6.520;2022-07-29T03:50:00;4.70;;;1.33;;
58665;SDS011;44436;52.872;6.520;2022-07-29T03:52:31;5.38;;;1.30;;
58665;SDS011;44436;52.872;6.520;2022-07-29T03:54:57;4.35;;;1.30;;
58665;SDS011;44436;52.872;6.520;2022-07-29T03:57:27;7.78;;;1.63;;
58665;SDS011;44436;52.872;6.520;2022-07-29T03:59:53;2.65;;;1.25;;
58665;SDS011;44436;52.872;6.520;2022-07-29T04:02:20;4.57;;;1.20;;
58665;SDS011;44436;52.872;6.520;2022-07-29T04:04:46;4.32;;;1.13;;
58665;SDS011;44436;52.872;6.520;2022-07-29T04:07:12;6.97;;;1.73;;
58665;SDS011;44436;52.872;6.520;2022-07-29T04:09:39;4.05;;;1.40;;
58665;SDS011;44436;52.872;6.520;2022-07-29T04:12:05;4.13;;;1.45;;
58665;SDS011;44436;52.872;6.520;2022-07-29T04:14:31;2.80;;;1.20;;
58665;SDS011;44436;52.872;6.520;2022-07-29T04:16:57;4.93;;;1.10;;
58665;SDS011;44436;52.872;6.520;2022-07-29T04:19:23;4.72;;;1.30;;
58665;SDS011;44436;52.872;6.520;2022-07-29T04:21:49;3.85;;;1.50;;
58665;SDS011;44436;52.872;6.520;2022-07-29T04:24:15;5.68;;;1.13;;
58665;SDS011;44436;52.872;6.520;2022-07-29T04:26:41;4.00;;;1.25;;
58665;SDS011;44436;52.872;6.520;2022-07-29T04:29:06;5.22;;;1.35;;
58665;SDS011;44436;52.872;6.520;2022-07-29T04:31:32;6.18;;;1.58;;
58665;SDS011;44436;52.872;6.520;2022-07-29T04:33:58;5.32;;;1.50;;
58665;SDS011;44436;52.872;6.520;2022-07-29T04:36:23;3.72;;;1.30;;
58665;SDS011;44436;52.872;6.520;2022-07-29T04:38:49;4.85;;;1.50;;
58665;SDS011;44436;52.872;6.520;2022-07-29T04:41:14;7.80;;;1.35;;
58665;SDS011;44436;52.872;6.520;2022-07-29T04:43:43;8.75;;;1.98;;
58665;SDS011;44436;52.872;6.520;2022-07-29T04:46:08;5.13;;;1.30;;
58665;SDS011;44436;52.872;6.520;2022-07-29T04:48:34;6.53;;;1.80;;
58665;SDS011;44436;52.872;6.520;2022-07-29T04:51:00;4.15;;;1.30;;
58665;SDS011;44436;52.872;6.520;2022-07-29T04:53:25;3.97;;;1.40;;
58665;SDS011;44436;52.872;6.520;2022-07-29T04:55:51;3.15;;;1.30;;
58665;SDS011;44436;52.872;6.520;2022-07-29T04:58:16;5.18;;;1.75;;
58665;SDS011;44436;52.872;6.520;2022-07-29T05:00:42;4.97;;;1.67;;
58665;SDS011;44436;52.872;6.520;2022-07-29T05:03:08;2.15;;;1.27;;
58665;SDS011;44436;52.872;6.520;2022-07-29T05:05:33;6.05;;;1.48;;
58665;SDS011;44436;52.872;6.520;2022-07-29T05:07:59;3.85;;;1.75;;
58665;SDS011;44436;52.872;6.520;2022-07-29T05:10:25;3.42;;;1.42;;
58665;SDS011;44436;52.872;6.520;2022-07-29T05:12:51;5.90;;;1.63;;
58665;SDS011;44436;52.872;6.520;2022-07-29T05:15:16;6.80;;;1.33;;
58665;SDS011;44436;52.872;6.520;2022-07-29T05:17:42;4.15;;;1.40;;
58665;SDS011;44436;52.872;6.520;2022-07-29T05:20:08;3.38;;;1.65;;
58665;SDS011;44436;52.872;6.520;2022-07-29T05:22:34;4.63;;;1.33;;
58665;SDS011;44436;52.872;6.520;2022-07-29T05:25:00;6.40;;;1.70;;
58665;SDS011;44436;52.872;6.520;2022-07-29T05:27:25;2.45;;;1.30;;
58665;SDS011;44436;52.872;6.520;2022-07-29T05:29:51;6.65;;;1.50;;
58665;SDS011;44436;52.872;6.520;2022-07-29T05:32:17;4.03;;;1.33;;
58665;SDS011;44436;52.872;6.520;2022-07-29T05:34:42;3.92;;;1.60;;
58665;SDS011;44436;52.872;6.520;2022-07-29T05:37:08;3.85;;;1.75;;
58665;SDS011;44436;52.872;6.520;2022-07-29T05:39:34;6.47;;;1.60;;
58665;SDS011;44436;52.872;6.520;2022-07-29T05:41:59;4.65;;;1.73;;
58665;SDS011;44436;52.872;6.520;2022-07-29T05:44:25;4.07;;;1.52;;
58665;SDS011;44436;52.872;6.520;2022-07-29T05:46:51;9.20;;;1.98;;
58665;SDS011;44436;52.872;6.520;2022-07-29T05:49:16;7.93;;;1.42;;
58665;SDS011;44436;52.872;6.520;2022-07-29T05:51:42;2.95;;;1.52;;
58665;SDS011;44436;52.872;6.520;2022-07-29T05:54:08;4.65;;;1.70;;
58665;SDS011;44436;52.872;6.520;2022-07-29T05:56:35;5.07;;;1.45;;
58665;SDS011;44436;52.872;6.520;2022-07-29T05:59:01;5.00;;;1.85;;
58665;SDS011;44436;52.872;6.520;2022-07-29T06:01:28;3.05;;;1.40;;
58665;SDS011;44436;52.872;6.520;2022-07-29T06:03:53;5.55;;;1.27;;
58665;SDS011;44436;52.872;6.520;2022-07-29T06:06:19;4.25;;;1.30;;
58665;SDS011;44436;52.872;6.520;2022-07-29T06:08:45;5.70;;;1.52;;
58665;SDS011;44436;52.872;6.520;2022-07-29T06:11:10;5.50;;;1.80;;
58665;SDS011;44436;52.872;6.520;2022-07-29T06:13:36;3.80;;;1.50;;
58665;SDS011;44436;52.872;6.520;2022-07-29T06:16:02;5.03;;;1.55;;
58665;SDS011;44436;52.872;6.520;2022-07-29T06:18:27;4.03;;;1.40;;
58665;SDS011;44436;52.872;6.520;2022-07-29T06:20:53;6.85;;;2.00;;
58665;SDS011;44436;52.872;6.520;2022-07-29T06:23:19;6.00;;;1.83;;
58665;SDS011;44436;52.872;6.520;2022-07-29T06:25:46;4.43;;;1.70;;
58665;SDS011;44436;52.872;6.520;2022-07-29T06:28:11;5.97;;;1.75;;
58665;SDS011;44436;52.872;6.520;2022-07-29T06:30:38;5.93;;;1.83;;
58665;SDS011;44436;52.872;6.520;2022-07-29T06:33:04;4.88;;;1.63;;
58665;SDS011;44436;52.872;6.520;2022-07-29T06:35:30;5.80;;;2.00;;
58665;SDS011;44436;52.872;6.520;2022-07-29T06:37:57;7.63;;;1.98;;
58665;SDS011;44436;52.872;6.520;2022-07-29T06:40:23;5.95;;;2.08;;
58665;SDS011;44436;52.872;6.520;2022-07-29T06:43:07;5.47;;;1.77;;
58665;SDS011;44436;52.872;6.520;2022-07-29T06:45:33;6.15;;;1.75;;
58665;SDS011;44436;52.872;6.520;2022-07-29T06:47:59;4.85;;;1.73;;
58665;SDS011;44436;52.872;6.520;2022-07-29T06:50:25;6.95;;;1.90;;
58665;SDS011;44436;52.872;6.520;2022-07-29T06:52:51;9.30;;;2.08;;
58665;SDS011;44436;52.872;6.520;2022-07-29T06:55:17;4.00;;;1.90;;
58665;SDS011;44436;52.872;6.520;2022-07-29T06:57:44;6.03;;;1.88;;
58665;SDS011;44436;52.872;6.520;2022-07-29T07:00:10;5.47;;;2.25;;
58665;SDS011;44436;52.872;6.520;2022-07-29T07:02:36;5.07;;;1.95;;
58665;SDS011;44436;52.872;6.520;2022-07-29T07:05:02;6.53;;;2.13;;
58665;SDS011;44436;52.872;6.520;2022-07-29T07:07:28;8.90;;;1.50;;
58665;SDS011;44436;52.872;6.520;2022-07-29T07:09:53;3.40;;;1.60;;
58665;SDS011;44436;52.872;6.520;2022-07-29T07:12:19;5.93;;;1.70;;
58665;SDS011;44436;52.872;6.520;2022-07-29T07:14:45;3.72;;;1.98;;
58665;SDS011;44436;52.872;6.520;2022-07-29T07:17:10;8.85;;;1.92;;
58665;SDS011;44436;52.872;6.520;2022-07-29T07:19:36;6.60;;;1.50;;
58665;SDS011;44436;52.872;6.520;2022-07-29T07:22:01;4.00;;;1.70;;
58665;SDS011;44436;52.872;6.520;2022-07-29T07:24:27;3.20;;;1.67;;
58665;SDS011;44436;52.872;6.520;2022-07-29T07:26:53;5.65;;;1.80;;
58665;SDS011;44436;52.872;6.520;2022-07-29T07:29:18;5.93;;;2.05;;
58665;SDS011;44436;52.872;6.520;2022-07-29T07:31:44;6.43;;;1.95;;
58665;SDS011;44436;52.872;6.520;2022-07-29T07:34:10;6.82;;;1.92;;
58665;SDS011;44436;52.872;6.520;2022-07-29T07:36:36;4.57;;;1.60;;
58665;SDS011;44436;52.872;6.520;2022-07-29T07:39:01;5.43;;;1.90;;
58665;SDS011;44436;52.872;6.520;2022-07-29T07:41:28;4.90;;;1.65;;
58665;SDS011;44436;52.872;6.520;2022-07-29T07:43:54;9.98;;;1.70;;
58665;SDS011;44436;52.872;6.520;2022-07-29T07:46:19;4.32;;;1.80;;
58665;SDS011;44436;52.872;6.520;2022-07-29T07:48:45;5.57;;;1.65;;
58665;SDS011;44436;52.872;6.520;2022-07-29T07:51:10;10.35;;;1.70;;
58665;SDS011;44436;52.872;6.520;2022-07-29T07:53:36;6.70;;;1.63;;
58665;SDS011;44436;52.872;6.520;2022-07-29T07:56:02;8.45;;;2.15;;
58665;SDS011;44436;52.872;6.520;2022-07-29T07:58:29;5.63;;;1.88;;
58665;SDS011;44436;52.872;6.520;2022-07-29T08:00:55;11.98;;;1.88;;
58665;SDS011;44436;52.872;6.520;2022-07-29T08:03:21;4.75;;;1.90;;
58665;SDS011;44436;52.872;6.520;2022-07-29T08:05:46;6.10;;;2.03;;
58665;SDS011;44436;52.872;6.520;2022-07-29T08:08:13;6.93;;;1.80;;
58665;SDS011;44436;52.872;6.520;2022-07-29T08:10:38;2.83;;;1.80;;
58665;SDS011;44436;52.872;6.520;2022-07-29T08:15:50;6.80;;;1.98;;
58665;SDS011;44436;52.872;6.520;2022-07-29T08:18:22;6.47;;;1.73;;
58665;SDS011;44436;52.872;6.520;2022-07-29T08:20:49;4.40;;;2.08;;
58665;SDS011;44436;52.872;6.520;2022-07-29T08:23:15;6.35;;;1.98;;
58665;SDS011;44436;52.872;6.520;2022-07-29T08:25:41;8.45;;;1.80;;
58665;SDS011;44436;52.872;6.520;2022-07-29T08:28:07;5.93;;;1.70;;
58665;SDS011;44436;52.872;6.520;2022-07-29T08:30:33;5.18;;;1.67;;
58665;SDS011;44436;52.872;6.520;2022-07-29T08:32:59;4.68;;;1.70;;
58665;SDS011;44436;52.872;6.520;2022-07-29T08:35:25;4.43;;;1.52;;
58665;SDS011;44436;52.872;6.520;2022-07-29T08:37:51;3.25;;;1.50;;
58665;SDS011;44436;52.872;6.520;2022-07-29T08:40:18;5.15;;;1.75;;
58665;SDS011;44436;52.872;6.520;2022-07-29T08:42:49;5.90;;;1.60;;
58665;SDS011;44436;52.872;6.520;2022-07-29T08:45:15;6.70;;;1.80;;
58665;SDS011;44436;52.872;6.520;2022-07-29T08:47:41;7.68;;;2.05;;
58665;SDS011;44436;52.872;6.520;2022-07-29T08:50:09;8.25;;;1.80;;
58665;SDS011;44436;52.872;6.520;2022-07-29T08:52:36;5.05;;;1.95;;
58665;SDS011;44436;52.872;6.520;2022-07-29T08:55:04;5.15;;;1.70;;
58665;SDS011;44436;52.872;6.520;2022-07-29T08:57:35;5.78;;;1.88;;
58665;SDS011;44436;52.872;6.520;2022-07-29T09:00:03;5.90;;;1.80;;
58665;SDS011;44436;52.872;6.520;2022-07-29T09:02:35;8.93;;;2.00;;
58665;SDS011;44436;52.872;6.520;2022-07-29T09:05:10;5.50;;;1.98;;
58665;SDS011;44436;52.872;6.520;2022-07-29T09:07:35;6.38;;;1.70;;
58665;SDS011;44436;52.872;6.520;2022-07-29T09:10:02;8.38;;;1.75;;
58665;SDS011;44436;52.872;6.520;2022-07-29T09:12:29;3.70;;;1.80;;
58665;SDS011;44436;52.872;6.520;2022-07-29T09:14:55;7.32;;;1.80;;
58665;SDS011;44436;52.872;6.520;2022-07-29T09:17:42;5.97;;;2.35;;
58665;SDS011;44436;52.872;6.520;2022-07-29T09:20:17;9.07;;;2.60;;
58665;SDS011;44436;52.872;6.520;2022-07-29T09:22:52;7.38;;;2.17;;
58665;SDS011;44436;52.872;6.520;2022-07-29T09:25:34;5.95;;;2.10;;
58665;SDS011;44436;52.872;6.520;2022-07-29T09:28:08;5.47;;;2.00;;
58665;SDS011;44436;52.872;6.520;2022-07-29T09:33:01;10.23;;;2.55;;
58665;SDS011;44436;52.872;6.520;2022-07-29T09:35:28;8.90;;;2.08;;
58665;SDS011;44436;52.872;6.520;2022-07-29T09:37:54;7.22;;;1.88;;
58665;SDS011;44436;52.872;6.520;2022-07-29T09:40:24;9.07;;;2.00;;
58665;SDS011;44436;52.872;6.520;2022-07-29T09:42:51;7.70;;;2.40;;
58665;SDS011;44436;52.872;6.520;2022-07-29T09:47:58;8.55;;;2.67;;
58665;SDS011;44436;52.872;6.520;2022-07-29T09:50:37;6.05;;;2.58;;
58665;SDS011;44436;52.872;6.520;2022-07-29T09:53:04;6.45;;;2.13;;
58665;SDS011;44436;52.872;6.520;2022-07-29T09:55:29;10.60;;;2.60;;
58665;SDS011;44436;52.872;6.520;2022-07-29T09:57:59;7.68;;;2.40;;
58665;SDS011;44436;52.872;6.520;2022-07-29T10:00:41;9.77;;;2.38;;
58665;SDS011;44436;52.872;6.520;2022-07-29T10:03:08;7.75;;;2.33;;
58665;SDS011;44436;52.872;6.520;2022-07-29T10:05:33;5.57;;;2.25;;
58665;SDS011;44436;52.872;6.520;2022-07-29T10:07:59;5.65;;;1.90;;
58665;SDS011;44436;52.872;6.520;2022-07-29T10:10:30;6.78;;;2.47;;
58665;SDS011;44436;52.872;6.520;2022-07-29T10:12:59;6.47;;;2.40;;
58665;SDS011;44436;52.872;6.520;2022-07-29T10:15:28;5.45;;;2.40;;
58665;SDS011;44436;52.872;6.520;2022-07-29T10:18:08;8.55;;;2.65;;
58665;SDS011;44436;52.872;6.520;2022-07-29T10:20:36;5.30;;;2.08;;
58665;SDS011;44436;52.872;6.520;2022-07-29T10:23:02;8.07;;;2.33;;
58665;SDS011;44436;52.872;6.520;2022-07-29T10:25:28;8.80;;;2.90;;
58665;SDS011;44436;52.872;6.520;2022-07-29T10:27:55;7.93;;;2.10;;
58665;SDS011;44436;52.872;6.520;2022-07-29T10:30:24;6.55;;;2.20;;
58665;SDS011;44436;52.872;6.520;2022-07-29T10:44:15;8.48;;;2.45;;
58665;SDS011;44436;52.872;6.520;2022-07-29T10:46:43;5.05;;;2.40;;
58665;SDS011;44436;52.872;6.520;2022-07-29T10:49:10;7.63;;;2.00;;
58665;SDS011;44436;52.872;6.520;2022-07-29T10:54:16;6.40;;;2.60;;
58665;SDS011;44436;52.872;6.520;2022-07-29T11:05:00;7.50;;;2.20;;
58665;SDS011;44436;52.872;6.520;2022-07-29T11:07:28;7.43;;;2.33;;
58665;SDS011;44436;52.872;6.520;2022-07-29T11:22:55;5.32;;;2.70;;
58665;SDS011;44436;52.872;6.520;2022-07-29T11:25:21;11.13;;;2.47;;
58665;SDS011;44436;52.872;6.520;2022-07-29T11:27:47;7.57;;;2.22;;
58665;SDS011;44436;52.872;6.520;2022-07-29T11:30:12;9.05;;;2.13;;
58665;SDS011;44436;52.872;6.520;2022-07-29T11:32:42;5.13;;;1.90;;
58665;SDS011;44436;52.872;6.520;2022-07-29T11:37:40;7.80;;;2.10;;
58665;SDS011;44436;52.872;6.520;2022-07-29T11:45:08;4.32;;;1.67;;
58665;SDS011;44436;52.872;6.520;2022-07-29T11:47:38;6.53;;;2.13;;
58665;SDS011;44436;52.872;6.520;2022-07-29T11:50:11;6.28;;;2.30;;
58665;SDS011;44436;52.872;6.520;2022-07-29T11:52:42;4.85;;;2.10;;
58665;SDS011;44436;52.872;6.520;2022-07-29T11:55:13;6.78;;;1.95;;
58665;SDS011;44436;52.872;6.520;2022-07-29T11:57:48;5.68;;;2.10;;
58665;SDS011;44436;52.872;6.520;2022-07-29T12:00:41;8.20;;;2.85;;
58665;SDS011;44436;52.872;6.520;2022-07-29T12:03:11;9.65;;;2.17;;
58665;SDS011;44436;52.872;6.520;2022-07-29T12:10:34;7.45;;;2.00;;
58665;SDS011;44436;52.872;6.520;2022-07-29T12:13:01;10.30;;;2.13;;
58665;SDS011;44436;52.872;6.520;2022-07-29T12:15:26;12.52;;;2.60;;
58665;SDS011;44436;52.872;6.520;2022-07-29T12:17:52;5.32;;;2.15;;
58665;SDS011;44436;52.872;6.520;2022-07-29T12:20:24;8.23;;;2.00;;
58665;SDS011;44436;52.872;6.520;2022-07-29T12:22:52;8.73;;;2.50;;
58665;SDS011;44436;52.872;6.520;2022-07-29T12:25:19;7.00;;;2.30;;
58665;SDS011;44436;52.872;6.520;2022-07-29T12:27:47;5.05;;;2.00;;
58665;SDS011;44436;52.872;6.520;2022-07-29T12:30:23;10.77;;;2.70;;
58665;SDS011;44436;52.872;6.520;2022-07-29T12:33:12;4.77;;;1.90;;
58665;SDS011;44436;52.872;6.520;2022-07-29T12:35:42;9.13;;;2.28;;
58665;SDS011;44436;52.872;6.520;2022-07-29T12:38:10;7.45;;;2.40;;
58665;SDS011;44436;52.872;6.520;2022-07-29T12:40:37;9.00;;;2.08;;
58665;SDS011;44436;52.872;6.520;2022-07-29T12:45:34;5.53;;;2.10;;
58665;SDS011;44436;52.872;6.520;2022-07-29T12:48:04;8.50;;;2.00;;
58665;SDS011;44436;52.872;6.520;2022-07-29T12:50:33;9.25;;;2.00;;
58665;SDS011;44436;52.872;6.520;2022-07-29T12:53:12;9.07;;;2.00;;
58665;SDS011;44436;52.872;6.520;2022-07-29T12:55:39;6.93;;;2.20;;
58665;SDS011;44436;52.872;6.520;2022-07-29T13:01:17;6.15;;;2.45;;
58665;SDS011;44436;52.872;6.520;2022-07-29T13:11:37;3.30;;;1.83;;
58665;SDS011;44436;52.872;6.520;2022-07-29T13:14:04;9.43;;;2.50;;
58665;SDS011;44436;52.872;6.520;2022-07-29T13:16:35;5.85;;;1.60;;
58665;SDS011;44436;52.872;6.520;2022-07-29T13:19:06;4.25;;;1.83;;
58665;SDS011;44436;52.872;6.520;2022-07-29T13:21:34;9.95;;;2.00;;
58665;SDS011;44436;52.872;6.520;2022-07-29T13:24:01;5.95;;;2.03;;
58665;SDS011;44436;52.872;6.520;2022-07-29T13:26:26;7.10;;;2.35;;
58665;SDS011;44436;52.872;6.520;2022-07-29T13:28:53;8.80;;;2.35;;
58665;SDS011;44436;52.872;6.520;2022-07-29T13:31:19;8.13;;;1.98;;
58665;SDS011;44436;52.872;6.520;2022-07-29T13:33:45;5.40;;;1.70;;
58665;SDS011;44436;52.872;6.520;2022-07-29T13:36:11;6.10;;;1.70;;
58665;SDS011;44436;52.872;6.520;2022-07-29T13:38:37;7.05;;;1.90;;
58665;SDS011;44436;52.872;6.520;2022-07-29T13:41:02;8.68;;;1.98;;
58665;SDS011;44436;52.872;6.520;2022-07-29T13:43:28;4.88;;;1.88;;
58665;SDS011;44436;52.872;6.520;2022-07-29T13:45:53;8.10;;;1.90;;
58665;SDS011;44436;52.872;6.520;2022-07-29T13:48:20;5.60;;;1.50;;
58665;SDS011;44436;52.872;6.520;2022-07-29T13:50:45;7.75;;;2.20;;
58665;SDS011;44436;52.872;6.520;2022-07-29T13:53:12;4.80;;;1.65;;
58665;SDS011;44436;52.872;6.520;2022-07-29T13:55:38;7.05;;;2.08;;
58665;SDS011;44436;52.872;6.520;2022-07-29T13:58:07;8.93;;;1.80;;
58665;SDS011;44436;52.872;6.520;2022-07-29T14:00:33;4.68;;;1.70;;
58665;SDS011;44436;52.872;6.520;2022-07-29T14:02:58;5.45;;;1.90;;
58665;SDS011;44436;52.872;6.520;2022-07-29T14:05:24;5.85;;;2.15;;
58665;SDS011;44436;52.872;6.520;2022-07-29T14:07:50;7.22;;;2.10;;
58665;SDS011;44436;52.872;6.520;2022-07-29T14:10:15;5.72;;;1.77;;
58665;SDS011;44436;52.872;6.520;2022-07-29T14:12:41;5.65;;;1.60;;
58665;SDS011;44436;52.872;6.520;2022-07-29T14:15:07;7.25;;;1.85;;
58665;SDS011;44436;52.872;6.520;2022-07-29T14:17:33;6.55;;;1.83;;
58665;SDS011;44436;52.872;6.520;2022-07-29T14:19:59;7.57;;;2.05;;
58665;SDS011;44436;52.872;6.520;2022-07-29T14:22:24;3.83;;;1.70;;
58665;SDS011;44436;52.872;6.520;2022-07-29T14:24:50;7.05;;;1.92;;
58665;SDS011;44436;52.872;6.520;2022-07-29T14:27:16;4.00;;;1.70;;
58665;SDS011;44436;52.872;6.520;2022-07-29T14:29:41;7.07;;;1.90;;
58665;SDS011;44436;52.872;6.520;2022-07-29T14:32:07;7.03;;;2.00;;
58665;SDS011;44436;52.872;6.520;2022-07-29T14:34:35;5.70;;;1.88;;
58665;SDS011;44436;52.872;6.520;2022-07-29T14:37:02;8.15;;;1.75;;
58665;SDS011;44436;52.872;6.520;2022-07-29T14:39:30;5.63;;;1.67;;
58665;SDS011;44436;52.872;6.520;2022-07-29T14:41:56;4.22;;;1.60;;
58665;SDS011;44436;52.872;6.520;2022-07-29T14:44:22;6.80;;;1.50;;
58665;SDS011;44436;52.872;6.520;2022-07-29T14:46:47;8.77;;;1.70;;
58665;SDS011;44436;52.872;6.520;2022-07-29T14:49:13;7.28;;;1.60;;
58665;SDS011;44436;52.872;6.520;2022-07-29T14:51:38;4.13;;;1.48;;
58665;SDS011;44436;52.872;6.520;2022-07-29T14:54:04;5.57;;;1.50;;
58665;SDS011;44436;52.872;6.520;2022-07-29T14:56:30;6.93;;;1.92;;
58665;SDS011;44436;52.872;6.520;2022-07-29T14:58:56;7.38;;;1.90;;
58665;SDS011;44436;52.872;6.520;2022-07-29T15:01:22;6.18;;;1.50;;
58665;SDS011;44436;52.872;6.520;2022-07-29T15:03:48;5.15;;;1.75;;
58665;SDS011;44436;52.872;6.520;2022-07-29T15:06:15;4.82;;;1.50;;
58665;SDS011;44436;52.872;6.520;2022-07-29T15:08:41;16.83;;;2.00;;
58665;SDS011;44436;52.872;6.520;2022-07-29T15:11:06;7.60;;;1.70;;
58665;SDS011;44436;52.872;6.520;2022-07-29T15:13:33;4.85;;;1.90;;
58665;SDS011;44436;52.872;6.520;2022-07-29T15:15:59;8.13;;;1.67;;
58665;SDS011;44436;52.872;6.520;2022-07-29T15:18:25;7.30;;;1.73;;
58665;SDS011;44436;52.872;6.520;2022-07-29T15:20:50;4.80;;;1.95;;
58665;SDS011;44436;52.872;6.520;2022-07-29T15:23:16;5.03;;;2.03;;
58665;SDS011;44436;52.872;6.520;2022-07-29T15:25:42;9.13;;;1.83;;
58665;SDS011;44436;52.872;6.520;2022-07-29T15:28:08;7.88;;;1.67;;
58665;SDS011;44436;52.872;6.520;2022-07-29T15:30:34;8.07;;;1.95;;
58665;SDS011;44436;52.872;6.520;2022-07-29T15:33:05;5.18;;;1.70;;
58665;SDS011;44436;52.872;6.520;2022-07-29T15:35:32;9.07;;;1.73;;
58665;SDS011;44436;52.872;6.520;2022-07-29T15:37:57;8.52;;;1.83;;
58665;SDS011;44436;52.872;6.520;2022-07-29T15:40:23;7.20;;;1.83;;
58665;SDS011;44436;52.872;6.520;2022-07-29T15:42:49;4.57;;;1.52;;
58665;SDS011;44436;52.872;6.520;2022-07-29T15:45:14;5.20;;;1.63;;
58665;SDS011;44436;52.872;6.520;2022-07-29T15:47:40;6.75;;;1.60;;
58665;SDS011;44436;52.872;6.520;2022-07-29T15:50:06;13.05;;;1.95;;
58665;SDS011;44436;52.872;6.520;2022-07-29T15:52:36;6.97;;;1.80;;
58665;SDS011;44436;52.872;6.520;2022-07-29T15:55:02;9.88;;;2.05;;
58665;SDS011;44436;52.872;6.520;2022-07-29T15:57:28;7.00;;;2.70;;
58665;SDS011;44436;52.872;6.520;2022-07-29T15:59:54;6.75;;;1.98;;
58665;SDS011;44436;52.872;6.520;2022-07-29T16:02:19;3.35;;;1.52;;
58665;SDS011;44436;52.872;6.520;2022-07-29T16:04:45;4.55;;;1.58;;
58665;SDS011;44436;52.872;6.520;2022-07-29T16:07:11;6.78;;;1.85;;
58665;SDS011;44436;52.872;6.520;2022-07-29T16:09:36;5.55;;;2.00;;
58665;SDS011;44436;52.872;6.520;2022-07-29T16:12:02;7.95;;;1.65;;
58665;SDS011;44436;52.872;6.520;2022-07-29T16:14:28;6.50;;;1.45;;
58665;SDS011;44436;52.872;6.520;2022-07-29T16:16:54;10.20;;;1.77;;
58665;SDS011;44436;52.872;6.520;2022-07-29T16:19:20;5.18;;;1.48;;
58665;SDS011;44436;52.872;6.520;2022-07-29T16:21:46;6.15;;;1.73;;